NCAR-RAP Real-Time Weather Data

Output produced by METARs form (23 February 2020  01:44 UTC)
found at http://weather.rap.ucar.edu/surface/
 
KROA 230054Z 04005KT 10SM CLR 08/M13 A3031 RMK AO2 SLP269 T00781128
KROA 222354Z 00000KT 10SM CLR 09/M13 A3030 RMK AO2 SLP266 T00941128 10133 20094 53000
KROA 222254Z 23005KT 10SM CLR 12/M14 A3029 RMK AO2 SLP261 T01171139
KROA 222154Z 24009KT 10SM CLR 13/M14 A3029 RMK AO2 SLP261 T01281139
KROA 222054Z 23009KT 10SM CLR 13/M15 A3030 RMK AO2 SLP264 T01331150 56021
KROA 221954Z 23008G14KT 10SM CLR 13/M16 A3030 RMK AO2 SLP265 T01281156
KROA 221854Z 24008KT 10SM CLR 12/M16 A3032 RMK AO2 SLP273 T01171161
KROA 221754Z VRB06KT 10SM CLR 12/M14 A3036 RMK AO2 SLP286 T01171144 10117 21017 58024
KROA 221654Z 23007KT 10SM CLR 09/M14 A3041 RMK AO2 SLP301 T00941144
KROA 221554Z 25008KT 10SM CLR 07/M14 A3042 RMK AO2 SLP307 T00721144
KROA 221454Z 27007KT 10SM CLR 05/M14 A3044 RMK AO2 SLP314 T00501144 50004
KROA 221354Z 27010KT 10SM CLR 02/M14 A3044 RMK AO2 SLP316 T00221144
KROA 221254Z 35007KT 10SM CLR M01/M14 A3043 RMK AO2 SLP313 T10061139
KROA 221154Z 30007KT 10SM CLR M01/M14 A3042 RMK AO2 SLP311 T10111139 10000 21028 51010
KROA 221054Z 32007KT 10SM CLR M02/M13 A3042 RMK AO2 SLP309 T10221133
KROA 220954Z 32004KT 10SM CLR M02/M14 A3041 RMK AO2 SLP305 T10221139
KROA 220854Z 32008KT 10SM CLR M02/M13 A3039 RMK AO2 SLP299 T10171133 58010
KROA 220754Z 28007KT 10SM CLR M01/M13 A3040 RMK AO2 SLP304 T10111128
KROA 220654Z 29008KT 10SM CLR M01/M13 A3042 RMK AO2 SLP309 T10061133
KROA 220554Z 28007KT 10SM CLR M01/M13 A3042 RMK AO2 SLP310 T10061133 10033 21006 58015
KROA 220454Z 30006KT 10SM CLR 00/M14 A3044 RMK AO2 SLP317 T00001139 400721044
KROA 220354Z 29006KT 10SM CLR 01/M13 A3046 RMK AO2 SLP325 T00061133
KROA 220254Z VRB03KT 10SM CLR 01/M14 A3047 RMK AO2 SLP328 T00111139 51009
KROA 220154Z 27004KT 10SM CLR 02/M13 A3046 RMK AO2 SLP326 T00171133
KROA 220054Z 28005KT 10SM CLR 02/M13 A3046 RMK AO2 SLP325 T00221133
KROA 212354Z 29005KT 10SM CLR 03/M14 A3044 RMK AO2 SLP319 T00331139 10072 20033 53002
KROA 212254Z 29008KT 10SM CLR 05/M14 A3043 RMK AO2 SLP314 T00501139
KROA 212154Z 27008KT 10SM CLR 07/M14 A3043 RMK AO2 SLP311 T00671139
KROA 212054Z VRB06KT 10SM CLR 07/M14 A3043 RMK AO2 SLP314 T00671144 56019
KROA 211954Z 35007KT 10SM CLR 07/M15 A3045 RMK AO2 SLP317 T00671150
KROA 211854Z 35009KT 10SM CLR 06/M15 A3046 RMK AO2 SLP324 T00561150
KROA 211754Z 34006G16KT 10SM CLR 05/M14 A3049 RMK AO2 SLP334 T00501144 10050 21044 58007
KROA 211654Z VRB03KT 10SM CLR 03/M14 A3051 RMK AO2 SLP340 T00331144
KROA 211554Z 35007KT 10SM CLR 01/M14 A3052 RMK AO2 SLP343 T00111144
KROA 211454Z 35010KT 10SM CLR 00/M14 A3051 RMK AO2 SLP342 T00001139 51016
KROA 211354Z 33008KT 10SM CLR M02/M13 A3051 RMK AO2 SLP340 T10221128 $
KROA 211254Z 33009KT 10SM CLR M03/M12 A3049 RMK AO2 SLP335 T10331122
KROA 211154Z 32008KT 10SM CLR M04/M12 A3046 RMK AO2 SLP328 T10441117 10006 21044 51027
KROA 211054Z 32009KT 10SM CLR M03/M11 A3044 RMK AO2 SLP317 T10331111
KROA 210954Z 32011KT 10SM CLR M03/M11 A3041 RMK AO2 SLP308 T10281111
KROA 210854Z 31012KT 10SM CLR M01/M11 A3038 RMK AO2 SLP297 T10111106 51004
KROA 210754Z 32012KT 10SM FEW055 M01/M09 A3038 RMK AO2 SLP297 T10061094
KROA 210654Z 34009KT 10SM BKN050 M01/M09 A3038 RMK AO2 SLP296 T10061089
KROA 210554Z 33009KT 10SM CLR 00/M08 A3037 RMK AO2 SLP292 T00001078 10028 21006 50006
KROA 210454Z 36008KT 10SM CLR 01/M08 A3037 RMK AO2 SLP293 T00111078 400440000
KROA 210354Z 36014KT 10SM SCT120 02/M07 A3037 RMK AO2 SLP291 T00171072
KROA 210254Z 33008KT 10SM BKN110 02/M06 A3035 RMK AO2 SLP285 T00221061 53007
KROA 210154Z 33004KT 10SM OVC120 03/M03 A3034 RMK AO2 SLP281 T00281033